sensor_id;sensor_type;location;lat;lon;timestamp;pressure;altitude;pressure_sealevel;temperature
68745;BMP180;66104;45.456;11.064;2023-04-01T00:01:09;99436.80;;;11.40
68745;BMP180;66104;45.456;11.064;2023-04-01T00:03:46;99437.80;;;11.50
68745;BMP180;66104;45.456;11.064;2023-04-01T00:06:23;99434.00;;;11.50
68745;BMP180;66104;45.456;11.064;2023-04-01T00:09:01;99438.60;;;11.60
68745;BMP180;66104;45.456;11.064;2023-04-01T00:11:39;99438.60;;;11.50
68745;BMP180;66104;45.456;11.064;2023-04-01T00:14:16;99445.00;;;11.50
68745;BMP180;66104;45.456;11.064;2023-04-01T00:16:55;99442.20;;;11.50
68745;BMP180;66104;45.456;11.064;2023-04-01T00:19:32;99445.80;;;11.50
68745;BMP180;66104;45.456;11.064;2023-04-01T00:22:07;99452.40;;;11.50
68745;BMP180;66104;45.456;11.064;2023-04-01T00:24:45;99457.80;;;11.50
68745;BMP180;66104;45.456;11.064;2023-04-01T00:27:22;99450.40;;;11.40
68745;BMP180;66104;45.456;11.064;2023-04-01T00:29:59;99450.80;;;11.40
68745;BMP180;66104;45.456;11.064;2023-04-01T00:32:34;99455.60;;;11.30
68745;BMP180;66104;45.456;11.064;2023-04-01T00:35:12;99453.40;;;11.20
68745;BMP180;66104;45.456;11.064;2023-04-01T00:37:50;99449.00;;;11.20
68745;BMP180;66104;45.456;11.064;2023-04-01T00:40:34;99458.20;;;11.10
68745;BMP180;66104;45.456;11.064;2023-04-01T00:43:18;99458.40;;;11.10
68745;BMP180;66104;45.456;11.064;2023-04-01T00:45:56;99459.00;;;11.10
68745;BMP180;66104;45.456;11.064;2023-04-01T00:48:35;99459.20;;;11.10
68745;BMP180;66104;45.456;11.064;2023-04-01T00:51:17;99452.00;;;11.10
68745;BMP180;66104;45.456;11.064;2023-04-01T00:53:58;99448.60;;;11.04
68745;BMP180;66104;45.456;11.064;2023-04-01T00:56:41;99458.00;;;11.10
68745;BMP180;66104;45.456;11.064;2023-04-01T00:59:23;99459.80;;;11.10
68745;BMP180;66104;45.456;11.064;2023-04-01T01:02:02;99464.00;;;11.10
68745;BMP180;66104;45.456;11.064;2023-04-01T01:04:39;99469.40;;;11.10
68745;BMP180;66104;45.456;11.064;2023-04-01T01:07:31;99471.00;;;11.10
68745;BMP180;66104;45.456;11.064;2023-04-01T01:10:18;99471.00;;;11.10
68745;BMP180;66104;45.456;11.064;2023-04-01T01:13:08;99466.80;;;11.00
68745;BMP180;66104;45.456;11.064;2023-04-01T01:15:56;99461.80;;;11.00
68745;BMP180;66104;45.456;11.064;2023-04-01T01:18:43;99461.00;;;10.90
68745;BMP180;66104;45.456;11.064;2023-04-01T01:24:55;99462.00;;;10.90
68745;BMP180;66104;45.456;11.064;2023-04-01T01:27:36;99468.00;;;10.80
68745;BMP180;66104;45.456;11.064;2023-04-01T01:30:39;99466.40;;;10.70
68745;BMP180;66104;45.456;11.064;2023-04-01T01:36:28;99466.80;;;10.60
68745;BMP180;66104;45.456;11.064;2023-04-01T01:39:12;99464.00;;;10.60
68745;BMP180;66104;45.456;11.064;2023-04-01T01:41:51;99462.80;;;10.60
68745;BMP180;66104;45.456;11.064;2023-04-01T01:44:31;99456.40;;;10.60
68745;BMP180;66104;45.456;11.064;2023-04-01T01:47:08;99450.80;;;10.60
68745;BMP180;66104;45.456;11.064;2023-04-01T01:49:46;99452.60;;;10.60
68745;BMP180;66104;45.456;11.064;2023-04-01T01:52:27;99455.60;;;10.60
68745;BMP180;66104;45.456;11.064;2023-04-01T01:57:53;99453.00;;;10.60
68745;BMP180;66104;45.456;11.064;2023-04-01T02:00:32;99448.40;;;10.50
68745;BMP180;66104;45.456;11.064;2023-04-01T02:03:10;99442.20;;;10.50
68745;BMP180;66104;45.456;11.064;2023-04-01T02:05:49;99433.20;;;10.50
68745;BMP180;66104;45.456;11.064;2023-04-01T02:08:32;99432.20;;;10.50
68745;BMP180;66104;45.456;11.064;2023-04-01T02:11:14;99431.20;;;10.60
68745;BMP180;66104;45.456;11.064;2023-04-01T02:13:58;99438.40;;;10.56
68745;BMP180;66104;45.456;11.064;2023-04-01T02:16:44;99442.00;;;10.50
68745;BMP180;66104;45.456;11.064;2023-04-01T02:19:26;99445.60;;;10.50
68745;BMP180;66104;45.456;11.064;2023-04-01T02:22:08;99446.60;;;10.50
68745;BMP180;66104;45.456;11.064;2023-04-01T02:24:45;99451.80;;;10.42
68745;BMP180;66104;45.456;11.064;2023-04-01T02:27:24;99455.60;;;10.40
68745;BMP180;66104;45.456;11.064;2023-04-01T02:30:01;99448.60;;;10.40
68745;BMP180;66104;45.456;11.064;2023-04-01T02:32:41;99437.40;;;10.30
68745;BMP180;66104;45.456;11.064;2023-04-01T02:35:19;99444.80;;;10.30
68745;BMP180;66104;45.456;11.064;2023-04-01T02:37:57;99451.00;;;10.30
68745;BMP180;66104;45.456;11.064;2023-04-01T02:40:46;99447.80;;;10.30
68745;BMP180;66104;45.456;11.064;2023-04-01T02:43:24;99440.80;;;10.30
68745;BMP180;66104;45.456;11.064;2023-04-01T02:46:01;99442.00;;;10.30
68745;BMP180;66104;45.456;11.064;2023-04-01T02:48:38;99441.60;;;10.30
68745;BMP180;66104;45.456;11.064;2023-04-01T02:51:14;99437.40;;;10.30
68745;BMP180;66104;45.456;11.064;2023-04-01T02:53:50;99438.60;;;10.30
68745;BMP180;66104;45.456;11.064;2023-04-01T02:56:27;99438.20;;;10.30
68745;BMP180;66104;45.456;11.064;2023-04-01T02:59:04;99434.40;;;10.24
68745;BMP180;66104;45.456;11.064;2023-04-01T03:01:41;99439.40;;;10.20
68745;BMP180;66104;45.456;11.064;2023-04-01T03:04:19;99442.60;;;10.20
68745;BMP180;66104;45.456;11.064;2023-04-01T03:06:56;99455.20;;;10.10
68745;BMP180;66104;45.456;11.064;2023-04-01T03:09:33;99458.20;;;10.00
68745;BMP180;66104;45.456;11.064;2023-04-01T03:12:10;99460.20;;;9.98
68745;BMP180;66104;45.456;11.064;2023-04-01T03:14:53;99452.60;;;9.92
68745;BMP180;66104;45.456;11.064;2023-04-01T03:17:44;99446.80;;;9.90
68745;BMP180;66104;45.456;11.064;2023-04-01T03:20:21;99449.60;;;9.90
68745;BMP180;66104;45.456;11.064;2023-04-01T03:22:58;99453.40;;;9.90
68745;BMP180;66104;45.456;11.064;2023-04-01T03:25:35;99452.60;;;9.80
68745;BMP180;66104;45.456;11.064;2023-04-01T03:28:12;99452.40;;;9.80
68745;BMP180;66104;45.456;11.064;2023-04-01T03:30:50;99451.40;;;9.80
68745;BMP180;66104;45.456;11.064;2023-04-01T03:33:26;99453.20;;;9.80
68745;BMP180;66104;45.456;11.064;2023-04-01T03:36:02;99453.00;;;9.80
68745;BMP180;66104;45.456;11.064;2023-04-01T03:38:40;99451.20;;;9.90
68745;BMP180;66104;45.456;11.064;2023-04-01T03:41:19;99453.80;;;9.90
68745;BMP180;66104;45.456;11.064;2023-04-01T03:43:57;99457.80;;;10.00
68745;BMP180;66104;45.456;11.064;2023-04-01T03:46:34;99463.00;;;9.90
68745;BMP180;66104;45.456;11.064;2023-04-01T03:49:12;99459.40;;;9.90
68745;BMP180;66104;45.456;11.064;2023-04-01T03:51:49;99457.80;;;9.90
68745;BMP180;66104;45.456;11.064;2023-04-01T03:54:26;99465.00;;;9.90
68745;BMP180;66104;45.456;11.064;2023-04-01T03:57:05;99463.60;;;9.90
68745;BMP180;66104;45.456;11.064;2023-04-01T03:59:42;99467.80;;;9.90
68745;BMP180;66104;45.456;11.064;2023-04-01T04:02:19;99473.60;;;9.90
68745;BMP180;66104;45.456;11.064;2023-04-01T04:04:54;99471.80;;;9.90
68745;BMP180;66104;45.456;11.064;2023-04-01T04:07:33;99468.40;;;9.90
68745;BMP180;66104;45.456;11.064;2023-04-01T04:10:14;99469.60;;;9.90
68745;BMP180;66104;45.456;11.064;2023-04-01T04:12:51;99470.60;;;9.90
68745;BMP180;66104;45.456;11.064;2023-04-01T04:15:28;99474.60;;;9.90
68745;BMP180;66104;45.456;11.064;2023-04-01T04:18:05;99485.00;;;9.90
68745;BMP180;66104;45.456;11.064;2023-04-01T04:20:48;99483.00;;;9.90
68745;BMP180;66104;45.456;11.064;2023-04-01T04:23:25;99485.60;;;9.90
68745;BMP180;66104;45.456;11.064;2023-04-01T04:26:05;99489.00;;;9.80
68745;BMP180;66104;45.456;11.064;2023-04-01T04:28:43;99490.40;;;9.70
68745;BMP180;66104;45.456;11.064;2023-04-01T04:31:25;99491.80;;;9.46
68745;BMP180;66104;45.456;11.064;2023-04-01T04:34:04;99496.40;;;9.20
68745;BMP180;66104;45.456;11.064;2023-04-01T04:36:41;99498.00;;;9.10
68745;BMP180;66104;45.456;11.064;2023-04-01T04:39:17;99499.00;;;9.18
68745;BMP180;66104;45.456;11.064;2023-04-01T04:41:56;99507.80;;;9.20
68745;BMP180;66104;45.456;11.064;2023-04-01T04:44:35;99507.80;;;9.20
68745;BMP180;66104;45.456;11.064;2023-04-01T04:47:11;99502.80;;;9.26
68745;BMP180;66104;45.456;11.064;2023-04-01T04:49:49;99507.00;;;9.30
68745;BMP180;66104;45.456;11.064;2023-04-01T04:52:26;99504.80;;;9.38
68745;BMP180;66104;45.456;11.064;2023-04-01T04:55:04;99500.40;;;9.40
68745;BMP180;66104;45.456;11.064;2023-04-01T04:57:43;99505.60;;;9.40
68745;BMP180;66104;45.456;11.064;2023-04-01T05:00:22;99510.20;;;9.40
68745;BMP180;66104;45.456;11.064;2023-04-01T05:03:03;99510.80;;;9.30
68745;BMP180;66104;45.456;11.064;2023-04-01T05:05:47;99513.20;;;9.30
68745;BMP180;66104;45.456;11.064;2023-04-01T05:08:24;99511.00;;;9.30
68745;BMP180;66104;45.456;11.064;2023-04-01T05:11:02;99518.40;;;9.30
68745;BMP180;66104;45.456;11.064;2023-04-01T05:13:38;99520.40;;;9.20
68745;BMP180;66104;45.456;11.064;2023-04-01T05:16:17;99518.00;;;9.20
68745;BMP180;66104;45.456;11.064;2023-04-01T05:18:54;99521.20;;;9.20
68745;BMP180;66104;45.456;11.064;2023-04-01T05:21:32;99523.60;;;9.20
68745;BMP180;66104;45.456;11.064;2023-04-01T05:24:11;99526.00;;;9.20
68745;BMP180;66104;45.456;11.064;2023-04-01T05:26:48;99529.40;;;9.20
68745;BMP180;66104;45.456;11.064;2023-04-01T05:29:26;99533.20;;;9.30
68745;BMP180;66104;45.456;11.064;2023-04-01T05:32:09;99516.40;;;9.94
68745;BMP180;66104;45.456;11.064;2023-04-01T05:34:46;99518.40;;;10.30
68745;BMP180;66104;45.456;11.064;2023-04-01T05:37:26;99514.40;;;10.30
68745;BMP180;66104;45.456;11.064;2023-04-01T05:40:10;99510.40;;;10.20
68745;BMP180;66104;45.456;11.064;2023-04-01T05:42:48;99511.00;;;10.10
68745;BMP180;66104;45.456;11.064;2023-04-01T05:45:24;99511.00;;;10.10
68745;BMP180;66104;45.456;11.064;2023-04-01T05:48:19;99505.40;;;10.20
68745;BMP180;66104;45.456;11.064;2023-04-01T05:50:56;99504.60;;;10.20
68745;BMP180;66104;45.456;11.064;2023-04-01T05:53:34;99509.60;;;10.10
68745;BMP180;66104;45.456;11.064;2023-04-01T05:56:12;99513.20;;;10.10
68745;BMP180;66104;45.456;11.064;2023-04-01T05:58:55;99515.80;;;10.10
68745;BMP180;66104;45.456;11.064;2023-04-01T06:01:32;99517.40;;;10.20
68745;BMP180;66104;45.456;11.064;2023-04-01T06:04:12;99522.40;;;10.32
68745;BMP180;66104;45.456;11.064;2023-04-01T06:06:51;99527.80;;;10.50
68745;BMP180;66104;45.456;11.064;2023-04-01T06:09:31;99531.60;;;10.60
68745;BMP180;66104;45.456;11.064;2023-04-01T06:15:39;99535.00;;;10.80
68745;BMP180;66104;45.456;11.064;2023-04-01T06:19:06;99534.40;;;10.70
68745;BMP180;66104;45.456;11.064;2023-04-01T06:22:29;99536.40;;;10.60
68745;BMP180;66104;45.456;11.064;2023-04-01T06:25:43;99547.40;;;10.50
68745;BMP180;66104;45.456;11.064;2023-04-01T06:32:00;99539.60;;;10.70
68745;BMP180;66104;45.456;11.064;2023-04-01T06:35:19;99540.80;;;10.86
68745;BMP180;66104;45.456;11.064;2023-04-01T06:44:42;99538.60;;;11.40
68745;BMP180;66104;45.456;11.064;2023-04-01T06:48:02;99545.60;;;11.50
68745;BMP180;66104;45.456;11.064;2023-04-01T06:50:57;99551.40;;;11.58
68745;BMP180;66104;45.456;11.064;2023-04-01T06:54:12;99563.60;;;11.70
68745;BMP180;66104;45.456;11.064;2023-04-01T06:57:34;99563.60;;;11.90
68745;BMP180;66104;45.456;11.064;2023-04-01T07:00:26;99564.00;;;12.00
68745;BMP180;66104;45.456;11.064;2023-04-01T07:03:18;99564.80;;;12.10
68745;BMP180;66104;45.456;11.064;2023-04-01T07:06:28;99570.20;;;12.28
68745;BMP180;66104;45.456;11.064;2023-04-01T07:09:16;99567.20;;;12.30
68745;BMP180;66104;45.456;11.064;2023-04-01T07:12:27;99568.60;;;12.40
68745;BMP180;66104;45.456;11.064;2023-04-01T07:15:33;99566.60;;;12.54
68745;BMP180;66104;45.456;11.064;2023-04-01T07:18:19;99568.20;;;12.60
68745;BMP180;66104;45.456;11.064;2023-04-01T07:21:00;99571.20;;;12.70
68745;BMP180;66104;45.456;11.064;2023-04-01T07:23:42;99574.40;;;12.84
68745;BMP180;66104;45.456;11.064;2023-04-01T07:26:35;99574.00;;;13.00
68745;BMP180;66104;45.456;11.064;2023-04-01T07:29:21;99575.40;;;13.10
68745;BMP180;66104;45.456;11.064;2023-04-01T07:32:19;99580.00;;;13.20
68745;BMP180;66104;45.456;11.064;2023-04-01T07:35:09;99578.80;;;13.30
68745;BMP180;66104;45.456;11.064;2023-04-01T07:38:10;99577.60;;;13.40
68745;BMP180;66104;45.456;11.064;2023-04-01T07:40:59;99575.00;;;13.50
68745;BMP180;66104;45.456;11.064;2023-04-01T07:43:53;99577.80;;;13.52
68745;BMP180;66104;45.456;11.064;2023-04-01T07:46:59;99582.00;;;13.70
68745;BMP180;66104;45.456;11.064;2023-04-01T07:49:47;99578.80;;;13.80
68745;BMP180;66104;45.456;11.064;2023-04-01T07:52:35;99586.60;;;13.90
68745;BMP180;66104;45.456;11.064;2023-04-01T07:55:24;99587.40;;;13.90
68745;BMP180;66104;45.456;11.064;2023-04-01T07:58:16;99587.80;;;14.00
68745;BMP180;66104;45.456;11.064;2023-04-01T08:01:03;99587.80;;;14.08
68745;BMP180;66104;45.456;11.064;2023-04-01T08:04:08;99583.20;;;14.10
68745;BMP180;66104;45.456;11.064;2023-04-01T08:06:59;99588.20;;;14.20
68745;BMP180;66104;45.456;11.064;2023-04-01T08:09:48;99588.20;;;14.20
68745;BMP180;66104;45.456;11.064;2023-04-01T08:13:10;99582.60;;;14.30
68745;BMP180;66104;45.456;11.064;2023-04-01T08:16:22;99585.60;;;14.30
68745;BMP180;66104;45.456;11.064;2023-04-01T08:19:15;99582.60;;;14.40
68745;BMP180;66104;45.456;11.064;2023-04-01T08:21:58;99581.00;;;14.50
68745;BMP180;66104;45.456;11.064;2023-04-01T08:24:43;99586.20;;;14.50
68745;BMP180;66104;45.456;11.064;2023-04-01T08:27:34;99588.40;;;14.52
68745;BMP180;66104;45.456;11.064;2023-04-01T08:30:23;99586.80;;;14.60
68745;BMP180;66104;45.456;11.064;2023-04-01T08:33:04;99590.60;;;14.68
68745;BMP180;66104;45.456;11.064;2023-04-01T08:35:49;99588.80;;;14.70
68745;BMP180;66104;45.456;11.064;2023-04-01T08:38:32;99584.80;;;14.70
68745;BMP180;66104;45.456;11.064;2023-04-01T08:41:35;99583.60;;;14.70
68745;BMP180;66104;45.456;11.064;2023-04-01T08:51:45;99583.20;;;14.78
68745;BMP180;66104;45.456;11.064;2023-04-01T08:58:35;99591.80;;;14.90
68745;BMP180;66104;45.456;11.064;2023-04-01T09:01:46;99593.40;;;14.90
68745;BMP180;66104;45.456;11.064;2023-04-01T09:05:24;99590.60;;;15.00
68745;BMP180;66104;45.456;11.064;2023-04-01T09:08:14;99584.20;;;15.00
68745;BMP180;66104;45.456;11.064;2023-04-01T09:11:04;99588.80;;;15.00
68745;BMP180;66104;45.456;11.064;2023-04-01T09:14:28;99592.00;;;15.12
68745;BMP180;66104;45.456;11.064;2023-04-01T09:28:07;99599.60;;;15.60
68745;BMP180;66104;45.456;11.064;2023-04-01T09:31:09;99600.20;;;15.60
68745;BMP180;66104;45.456;11.064;2023-04-01T09:34:33;99597.20;;;15.70
68745;BMP180;66104;45.456;11.064;2023-04-01T09:37:25;99593.40;;;15.70
68745;BMP180;66104;45.456;11.064;2023-04-01T09:40:25;99592.80;;;15.80
68745;BMP180;66104;45.456;11.064;2023-04-01T09:43:29;99587.80;;;15.88
68745;BMP180;66104;45.456;11.064;2023-04-01T09:46:39;99591.00;;;15.92
68745;BMP180;66104;45.456;11.064;2023-04-01T09:49:59;99588.00;;;16.00
68745;BMP180;66104;45.456;11.064;2023-04-01T09:52:49;99586.00;;;16.10
68745;BMP180;66104;45.456;11.064;2023-04-01T10:14:00;99577.40;;;16.30
68745;BMP180;66104;45.456;11.064;2023-04-01T10:34:18;99562.40;;;17.00
68745;BMP180;66104;45.456;11.064;2023-04-01T10:36:59;99559.40;;;17.10
68745;BMP180;66104;45.456;11.064;2023-04-01T10:54:00;99548.20;;;17.40
68745;BMP180;66104;45.456;11.064;2023-04-01T10:57:06;99552.40;;;17.60
68745;BMP180;66104;45.456;11.064;2023-04-01T11:15:24;99532.00;;;18.00
68745;BMP180;66104;45.456;11.064;2023-04-01T11:22:20;99532.00;;;18.20
68745;BMP180;66104;45.456;11.064;2023-04-01T11:25:34;99527.20;;;18.16
68745;BMP180;66104;45.456;11.064;2023-04-01T11:29:13;99530.00;;;18.20
68745;BMP180;66104;45.456;11.064;2023-04-01T11:32:07;99529.40;;;18.30
68745;BMP180;66104;45.456;11.064;2023-04-01T11:41:51;99525.00;;;18.70
68745;BMP180;66104;45.456;11.064;2023-04-01T11:45:10;99519.60;;;18.80
68745;BMP180;66104;45.456;11.064;2023-04-01T11:48:19;99519.20;;;18.80
68745;BMP180;66104;45.456;11.064;2023-04-01T11:54:19;99517.60;;;19.00
68745;BMP180;66104;45.456;11.064;2023-04-01T11:57:17;99514.40;;;18.92
68745;BMP180;66104;45.456;11.064;2023-04-01T12:00:27;99519.40;;;19.00
68745;BMP180;66104;45.456;11.064;2023-04-01T12:03:29;99518.20;;;19.00
68745;BMP180;66104;45.456;11.064;2023-04-01T12:06:16;99517.60;;;19.10
68745;BMP180;66104;45.456;11.064;2023-04-01T12:09:04;99522.60;;;19.10
68745;BMP180;66104;45.456;11.064;2023-04-01T12:11:56;99516.80;;;19.20
68745;BMP180;66104;45.456;11.064;2023-04-01T12:14:43;99514.00;;;19.30
68745;BMP180;66104;45.456;11.064;2023-04-01T12:17:39;99516.20;;;19.30
68745;BMP180;66104;45.456;11.064;2023-04-01T12:20:40;99515.60;;;19.20
68745;BMP180;66104;45.456;11.064;2023-04-01T12:23:52;99511.80;;;19.20
68745;BMP180;66104;45.456;11.064;2023-04-01T12:27:01;99517.00;;;19.28
68745;BMP180;66104;45.456;11.064;2023-04-01T12:33:09;99509.60;;;19.20
68745;BMP180;66104;45.456;11.064;2023-04-01T12:36:04;99506.20;;;19.20
68745;BMP180;66104;45.456;11.064;2023-04-01T12:39:00;99504.80;;;19.30
68745;BMP180;66104;45.456;11.064;2023-04-01T12:41:49;99501.80;;;19.50
68745;BMP180;66104;45.456;11.064;2023-04-01T12:54:59;99498.60;;;20.20
68745;BMP180;66104;45.456;11.064;2023-04-01T13:05:06;99492.40;;;20.40
68745;BMP180;66104;45.456;11.064;2023-04-01T13:08:03;99491.20;;;20.50
68745;BMP180;66104;45.456;11.064;2023-04-01T13:11:13;99481.80;;;20.60
68745;BMP180;66104;45.456;11.064;2023-04-01T13:14:15;99482.60;;;20.60
68745;BMP180;66104;45.456;11.064;2023-04-01T13:17:13;99480.20;;;20.50
68745;BMP180;66104;45.456;11.064;2023-04-01T13:20:00;99471.20;;;20.50
68745;BMP180;66104;45.456;11.064;2023-04-01T13:22:55;99472.00;;;20.64
68745;BMP180;66104;45.456;11.064;2023-04-01T13:25:46;99469.00;;;20.70
68745;BMP180;66104;45.456;11.064;2023-04-01T13:28:40;99471.40;;;20.50
68745;BMP180;66104;45.456;11.064;2023-04-01T13:31:39;99462.80;;;20.40
68745;BMP180;66104;45.456;11.064;2023-04-01T13:34:55;99461.20;;;20.30
68745;BMP180;66104;45.456;11.064;2023-04-01T13:37:54;99464.20;;;20.30
68745;BMP180;66104;45.456;11.064;2023-04-01T13:40:51;99457.80;;;20.30
68745;BMP180;66104;45.456;11.064;2023-04-01T13:43:42;99449.40;;;20.30
68745;BMP180;66104;45.456;11.064;2023-04-01T13:46:39;99439.40;;;20.40
68745;BMP180;66104;45.456;11.064;2023-04-01T13:56:04;99427.80;;;20.70
68745;BMP180;66104;45.456;11.064;2023-04-01T13:59:22;99421.00;;;20.70
68745;BMP180;66104;45.456;11.064;2023-04-01T14:05:42;99420.00;;;20.62
68745;BMP180;66104;45.456;11.064;2023-04-01T14:08:40;99421.40;;;20.60
68745;BMP180;66104;45.456;11.064;2023-04-01T14:11:25;99419.60;;;20.60
68745;BMP180;66104;45.456;11.064;2023-04-01T14:14:18;99421.40;;;20.70
68745;BMP180;66104;45.456;11.064;2023-04-01T14:17:23;99420.80;;;20.70
68745;BMP180;66104;45.456;11.064;2023-04-01T14:20:24;99418.20;;;20.80
68745;BMP180;66104;45.456;11.064;2023-04-01T14:29:51;99411.00;;;20.88
68745;BMP180;66104;45.456;11.064;2023-04-01T14:32:44;99410.20;;;20.90
68745;BMP180;66104;45.456;11.064;2023-04-01T14:35:41;99409.40;;;21.00
68745;BMP180;66104;45.456;11.064;2023-04-01T14:38:37;99407.40;;;20.82
68745;BMP180;66104;45.456;11.064;2023-04-01T14:41:36;99401.60;;;20.70
68745;BMP180;66104;45.456;11.064;2023-04-01T14:44:48;99401.00;;;20.60
68745;BMP180;66104;45.456;11.064;2023-04-01T14:47:47;99397.00;;;20.50
68745;BMP180;66104;45.456;11.064;2023-04-01T14:50:27;99389.80;;;20.40
68745;BMP180;66104;45.456;11.064;2023-04-01T14:53:28;99387.00;;;20.30
68745;BMP180;66104;45.456;11.064;2023-04-01T14:56:05;99381.60;;;20.20
68745;BMP180;66104;45.456;11.064;2023-04-01T14:58:49;99385.20;;;20.10
68745;BMP180;66104;45.456;11.064;2023-04-01T15:01:45;99387.60;;;20.10
68745;BMP180;66104;45.456;11.064;2023-04-01T15:04:53;99385.60;;;20.00
68745;BMP180;66104;45.456;11.064;2023-04-01T15:08:12;99385.20;;;20.00
68745;BMP180;66104;45.456;11.064;2023-04-01T15:11:19;99382.20;;;20.10
68745;BMP180;66104;45.456;11.064;2023-04-01T15:20:47;99373.40;;;20.40
68745;BMP180;66104;45.456;11.064;2023-04-01T15:23:38;99369.00;;;20.50
68745;BMP180;66104;45.456;11.064;2023-04-01T15:33:02;99368.40;;;20.50
68745;BMP180;66104;45.456;11.064;2023-04-01T15:35:55;99371.40;;;20.46
68745;BMP180;66104;45.456;11.064;2023-04-01T15:38:45;99364.20;;;20.38
68745;BMP180;66104;45.456;11.064;2023-04-01T15:41:28;99365.20;;;20.30
68745;BMP180;66104;45.456;11.064;2023-04-01T15:47:55;99369.00;;;20.20
68745;BMP180;66104;45.456;11.064;2023-04-01T15:50:54;99368.60;;;20.10
68745;BMP180;66104;45.456;11.064;2023-04-01T16:00:27;99368.60;;;19.98
68745;BMP180;66104;45.456;11.064;2023-04-01T16:03:31;99369.40;;;19.90
68745;BMP180;66104;45.456;11.064;2023-04-01T16:09:54;99374.40;;;19.80
68745;BMP180;66104;45.456;11.064;2023-04-01T16:12:53;99374.40;;;19.82
68745;BMP180;66104;45.456;11.064;2023-04-01T16:15:47;99372.60;;;19.90
68745;BMP180;66104;45.456;11.064;2023-04-01T16:18:51;99374.40;;;19.90
68745;BMP180;66104;45.456;11.064;2023-04-01T16:21:48;99365.00;;;19.90
68745;BMP180;66104;45.456;11.064;2023-04-01T16:24:38;99364.60;;;19.90
68745;BMP180;66104;45.456;11.064;2023-04-01T16:27:24;99355.60;;;19.90
68745;BMP180;66104;45.456;11.064;2023-04-01T16:30:25;99356.00;;;19.94
68745;BMP180;66104;45.456;11.064;2023-04-01T16:33:12;99357.80;;;19.90
68745;BMP180;66104;45.456;11.064;2023-04-01T16:35:57;99361.80;;;19.90
68745;BMP180;66104;45.456;11.064;2023-04-01T16:38:49;99360.80;;;19.90
68745;BMP180;66104;45.456;11.064;2023-04-01T16:41:33;99356.20;;;19.90
68745;BMP180;66104;45.456;11.064;2023-04-01T16:44:22;99348.40;;;19.90
68745;BMP180;66104;45.456;11.064;2023-04-01T16:47:05;99347.80;;;19.84
68745;BMP180;66104;45.456;11.064;2023-04-01T16:49:50;99351.80;;;19.80
68745;BMP180;66104;45.456;11.064;2023-04-01T16:52:48;99356.00;;;19.80
68745;BMP180;66104;45.456;11.064;2023-04-01T16:55:45;99359.40;;;19.80
68745;BMP180;66104;45.456;11.064;2023-04-01T16:58:32;99358.40;;;19.80
68745;BMP180;66104;45.456;11.064;2023-04-01T17:01:18;99357.40;;;19.80
68745;BMP180;66104;45.456;11.064;2023-04-01T17:04:11;99358.80;;;19.80
68745;BMP180;66104;45.456;11.064;2023-04-01T17:06:57;99360.00;;;19.70
68745;BMP180;66104;45.456;11.064;2023-04-01T17:13:09;99358.40;;;19.60
68745;BMP180;66104;45.456;11.064;2023-04-01T17:15:57;99359.20;;;19.60
68745;BMP180;66104;45.456;11.064;2023-04-01T17:18:48;99362.00;;;19.50
68745;BMP180;66104;45.456;11.064;2023-04-01T17:24:55;99365.00;;;19.30
68745;BMP180;66104;45.456;11.064;2023-04-01T17:27:51;99373.00;;;19.20
68745;BMP180;66104;45.456;11.064;2023-04-01T17:30:33;99370.00;;;19.10
68745;BMP180;66104;45.456;11.064;2023-04-01T17:36:39;99376.20;;;18.80
68745;BMP180;66104;45.456;11.064;2023-04-01T17:39:38;99379.60;;;18.70
68745;BMP180;66104;45.456;11.064;2023-04-01T17:42:26;99381.00;;;18.60
68745;BMP180;66104;45.456;11.064;2023-04-01T17:45:23;99382.00;;;18.50
68745;BMP180;66104;45.456;11.064;2023-04-01T17:48:18;99383.80;;;18.50
68745;BMP180;66104;45.456;11.064;2023-04-01T17:51:16;99388.60;;;18.40
68745;BMP180;66104;45.456;11.064;2023-04-01T17:54:02;99391.00;;;18.30
68745;BMP180;66104;45.456;11.064;2023-04-01T17:56:54;99399.40;;;18.26
68745;BMP180;66104;45.456;11.064;2023-04-01T17:59:43;99403.80;;;18.20
68745;BMP180;66104;45.456;11.064;2023-04-01T18:02:33;99404.60;;;18.10
68745;BMP180;66104;45.456;11.064;2023-04-01T18:05:34;99411.80;;;18.10
68745;BMP180;66104;45.456;11.064;2023-04-01T18:08:36;99415.40;;;17.90
68745;BMP180;66104;45.456;11.064;2023-04-01T18:11:30;99416.60;;;17.80
68745;BMP180;66104;45.456;11.064;2023-04-01T18:15:09;99423.00;;;17.70
68745;BMP180;66104;45.456;11.064;2023-04-01T18:18:02;99427.20;;;17.60
68745;BMP180;66104;45.456;11.064;2023-04-01T18:20:57;99423.00;;;17.50
68745;BMP180;66104;45.456;11.064;2023-04-01T18:23:43;99428.20;;;17.40
68745;BMP180;66104;45.456;11.064;2023-04-01T18:26:37;99429.00;;;17.30
68745;BMP180;66104;45.456;11.064;2023-04-01T18:29:30;99439.80;;;17.22
68745;BMP180;66104;45.456;11.064;2023-04-01T18:32:28;99441.40;;;17.14
68745;BMP180;66104;45.456;11.064;2023-04-01T18:35:22;99442.40;;;17.00
68745;BMP180;66104;45.456;11.064;2023-04-01T18:38:11;99451.20;;;17.00
68745;BMP180;66104;45.456;11.064;2023-04-01T18:40:59;99455.80;;;16.90
68745;BMP180;66104;45.456;11.064;2023-04-01T18:43:46;99460.80;;;16.80
68745;BMP180;66104;45.456;11.064;2023-04-01T18:46:39;99459.60;;;16.78
68745;BMP180;66104;45.456;11.064;2023-04-01T18:49:23;99464.80;;;16.70
68745;BMP180;66104;45.456;11.064;2023-04-01T18:52:12;99465.40;;;16.60
68745;BMP180;66104;45.456;11.064;2023-04-01T18:55:21;99467.60;;;16.50
68745;BMP180;66104;45.456;11.064;2023-04-01T18:58:16;99471.60;;;16.50
68745;BMP180;66104;45.456;11.064;2023-04-01T19:01:10;99473.80;;;16.40
68745;BMP180;66104;45.456;11.064;2023-04-01T19:06:52;99480.20;;;16.30
68745;BMP180;66104;45.456;11.064;2023-04-01T19:09:43;99483.40;;;16.30
68745;BMP180;66104;45.456;11.064;2023-04-01T19:12:40;99484.00;;;16.30
68745;BMP180;66104;45.456;11.064;2023-04-01T19:15:36;99487.80;;;16.22
68745;BMP180;66104;45.456;11.064;2023-04-01T19:21:45;99494.20;;;16.20
68745;BMP180;66104;45.456;11.064;2023-04-01T19:27:48;99501.00;;;16.10
68745;BMP180;66104;45.456;11.064;2023-04-01T19:30:56;99503.80;;;16.10
68745;BMP180;66104;45.456;11.064;2023-04-01T19:33:57;99505.60;;;16.10